createdAt,value
2018-08-10T00:00:18.410Z,16.00
2018-08-10T00:02:46.791Z,16.00
2018-08-10T00:05:15.179Z,16.10
2018-08-10T00:07:43.584Z,16.10
2018-08-10T00:10:13.390Z,16.10
2018-08-10T00:12:41.890Z,16.20
2018-08-10T00:15:11.679Z,16.10
2018-08-10T00:17:40.517Z,16.10
2018-08-10T00:20:12.593Z,16.10
2018-08-10T00:22:40.885Z,16.10
2018-08-10T00:25:11.621Z,16.10
2018-08-10T00:27:40.485Z,16.10
2018-08-10T00:30:12.473Z,16.00
2018-08-10T00:32:41.334Z,15.90
2018-08-10T00:35:10.539Z,15.80
2018-08-10T00:37:39.433Z,15.70
2018-08-10T00:40:10.565Z,15.70
2018-08-10T00:42:38.957Z,15.60
2018-08-10T00:45:08.846Z,15.70
2018-08-10T00:47:37.318Z,15.60
2018-08-10T00:50:08.415Z,15.60
2018-08-10T00:52:36.867Z,15.40
2018-08-10T00:55:06.689Z,15.40
2018-08-10T00:57:35.109Z,15.20
2018-08-10T01:00:03.779Z,15.10
2018-08-10T01:02:32.150Z,15.20
2018-08-10T01:05:00.478Z,15.00
2018-08-10T01:07:28.963Z,14.90
2018-08-10T01:09:57.332Z,14.90
2018-08-10T01:12:25.640Z,15.00
2018-08-10T01:14:54.041Z,15.10
2018-08-10T01:17:22.354Z,15.00
2018-08-10T01:19:50.629Z,14.60
2018-08-10T01:22:18.872Z,14.50
2018-08-10T01:24:47.232Z,14.60
2018-08-10T01:27:20.833Z,14.70
2018-08-10T01:29:49.159Z,14.80
2018-08-10T01:32:17.493Z,14.80
2018-08-10T01:34:45.831Z,14.80
2018-08-10T01:37:14.162Z,14.90
2018-08-10T01:39:42.486Z,14.90
2018-08-10T01:42:10.781Z,14.80
2018-08-10T01:44:39.172Z,14.60
2018-08-10T01:47:07.521Z,14.70
2018-08-10T01:49:35.867Z,14.70
2018-08-10T01:52:04.155Z,14.80
2018-08-10T01:54:32.522Z,14.70
2018-08-10T01:57:00.899Z,14.40
2018-08-10T01:59:29.276Z,14.60
2018-08-10T02:01:57.522Z,14.60
2018-08-10T02:04:25.915Z,14.20
2018-08-10T02:06:54.257Z,14.30
2018-08-10T02:09:22.615Z,14.50
2018-08-10T02:11:51.005Z,14.50
2018-08-10T02:14:19.309Z,14.50
2018-08-10T02:16:47.652Z,14.50
2018-08-10T02:19:16.019Z,14.20
2018-08-10T02:21:44.362Z,14.10
2018-08-10T02:24:12.677Z,14.20
2018-08-10T02:26:40.982Z,14.30
2018-08-10T02:29:09.355Z,14.30
2018-08-10T02:31:37.703Z,14.30
2018-08-10T02:34:06.052Z,14.30
2018-08-10T02:36:34.626Z,14.30
2018-08-10T02:39:02.968Z,14.30
2018-08-10T02:41:31.309Z,14.30
2018-08-10T02:43:59.797Z,14.20
2018-08-10T02:46:28.221Z,14.30
2018-08-10T02:48:56.545Z,14.30
2018-08-10T02:51:24.920Z,14.40
2018-08-10T02:53:53.334Z,14.30
2018-08-10T02:56:21.714Z,14.30
2018-08-10T02:58:50.129Z,14.40
2018-08-10T03:01:18.487Z,14.30
2018-08-10T03:03:46.864Z,14.30
2018-08-10T03:06:15.221Z,14.20
2018-08-10T03:08:46.486Z,14.10
2018-08-10T03:11:14.940Z,14.10
2018-08-10T03:13:43.314Z,14.10
2018-08-10T03:16:11.701Z,14.10
2018-08-10T03:18:40.043Z,14.10
2018-08-10T03:21:08.354Z,14.10
2018-08-10T03:23:36.686Z,13.90
2018-08-10T03:26:05.003Z,13.90
2018-08-10T03:28:33.375Z,14.00
2018-08-10T03:31:01.777Z,14.00
2018-08-10T03:33:30.241Z,14.00
2018-08-10T03:35:58.685Z,13.90
2018-08-10T03:38:27.182Z,13.90
2018-08-10T03:40:55.647Z,13.90
2018-08-10T03:43:24.155Z,13.90
2018-08-10T03:45:52.563Z,14.00
2018-08-10T03:48:20.919Z,14.00
2018-08-10T03:50:49.282Z,14.10
2018-08-10T03:53:17.630Z,14.00
2018-08-10T03:55:45.968Z,14.00
2018-08-10T03:58:14.244Z,14.00
2018-08-10T04:00:42.609Z,13.90
2018-08-10T04:03:11.122Z,14.00
2018-08-10T04:05:39.485Z,13.80
2018-08-10T04:08:07.901Z,13.70
2018-08-10T04:10:36.272Z,13.70
2018-08-10T04:13:04.652Z,13.80
2018-08-10T04:15:33.002Z,13.90
2018-08-10T04:18:01.416Z,13.90
2018-08-10T04:20:29.742Z,13.90
2018-08-10T04:22:58.161Z,13.80
2018-08-10T04:25:26.535Z,13.90
2018-08-10T04:27:54.907Z,13.90
2018-08-10T04:30:23.253Z,13.90
2018-08-10T04:32:51.635Z,13.90
2018-08-10T04:35:20.022Z,13.90
2018-08-10T04:37:48.431Z,13.90
2018-08-10T04:40:16.826Z,13.90
2018-08-10T04:42:45.188Z,13.90
2018-08-10T04:45:13.562Z,13.90
2018-08-10T04:47:48.759Z,13.90
2018-08-10T04:50:17.851Z,13.90
2018-08-10T04:52:46.152Z,14.00
2018-08-10T04:55:14.449Z,14.00
2018-08-10T04:57:42.825Z,14.00
2018-08-10T05:00:13.146Z,14.00
2018-08-10T05:02:41.525Z,14.10
2018-08-10T05:05:10.797Z,14.10
2018-08-10T05:07:40.243Z,14.20
2018-08-10T05:10:09.005Z,14.20
2018-08-10T05:12:38.162Z,14.20
2018-08-10T05:15:07.560Z,14.40
2018-08-10T05:17:36.254Z,14.60
2018-08-10T05:20:05.809Z,14.60
2018-08-10T05:22:34.153Z,14.70
2018-08-10T05:25:02.585Z,14.80
2018-08-10T05:27:31.101Z,14.90
2018-08-10T05:29:59.517Z,14.90
2018-08-10T05:32:27.967Z,15.00
2018-08-10T05:34:56.552Z,15.00
2018-08-10T05:37:24.765Z,15.00
2018-08-10T05:39:52.935Z,15.10
2018-08-10T05:42:21.159Z,15.20
2018-08-10T05:44:49.306Z,15.40
2018-08-10T05:47:17.628Z,15.40
2018-08-10T05:49:45.738Z,15.50
2018-08-10T05:52:13.893Z,15.60
2018-08-10T05:54:42.054Z,15.70
2018-08-10T05:57:10.214Z,15.80
2018-08-10T05:59:38.361Z,16.00
2018-08-10T06:02:06.634Z,16.40
2018-08-10T06:04:34.790Z,16.60
2018-08-10T06:07:03.001Z,16.60
2018-08-10T06:09:31.176Z,16.80
2018-08-10T06:11:59.309Z,16.80
2018-08-10T06:14:27.476Z,16.60
2018-08-10T06:16:55.628Z,16.60
2018-08-10T06:19:23.878Z,16.30
2018-08-10T06:21:52.126Z,16.40
2018-08-10T06:24:20.298Z,16.50
2018-08-10T06:26:48.513Z,17.30
2018-08-10T06:29:16.723Z,17.90
2018-08-10T06:31:44.924Z,17.60
2018-08-10T06:34:13.237Z,18.00
2018-08-10T06:36:41.370Z,18.20
2018-08-10T06:39:10.340Z,18.20
2018-08-10T06:41:38.663Z,18.70
2018-08-10T06:44:07.860Z,18.70
2018-08-10T06:46:36.091Z,18.70
2018-08-10T06:49:04.364Z,18.60
2018-08-10T06:51:32.643Z,18.90
2018-08-10T06:54:00.869Z,18.30
2018-08-10T06:56:29.082Z,18.10
2018-08-10T06:58:57.317Z,18.50
2018-08-10T07:01:25.595Z,19.30
2018-08-10T07:03:54.175Z,19.40
2018-08-10T07:06:22.407Z,19.20
2018-08-10T07:08:50.665Z,19.30
2018-08-10T07:11:18.882Z,19.50
2018-08-10T07:13:47.128Z,18.60
2018-08-10T07:16:15.360Z,18.50
2018-08-10T07:18:43.679Z,18.80
2018-08-10T07:21:11.892Z,19.40
2018-08-10T07:23:40.151Z,19.90
2018-08-10T07:26:08.513Z,20.50
2018-08-10T07:28:36.734Z,20.60
2018-08-10T07:31:04.970Z,20.70
2018-08-10T07:33:33.245Z,20.90
2018-08-10T07:36:01.453Z,20.50
2018-08-10T07:38:29.732Z,20.20
2018-08-10T07:40:57.953Z,20.30
2018-08-10T07:43:26.163Z,20.20
2018-08-10T07:45:54.357Z,20.60
2018-08-10T07:48:22.577Z,20.30
2018-08-10T07:50:50.773Z,20.20
2018-08-10T07:53:19.046Z,20.10
2018-08-10T07:55:47.252Z,20.10
2018-08-10T07:58:15.477Z,19.80
2018-08-10T08:00:43.856Z,20.30
2018-08-10T08:03:12.085Z,20.10
2018-08-10T08:05:40.232Z,20.80
2018-08-10T08:08:08.449Z,20.30
2018-08-10T08:10:36.714Z,19.40
2018-08-10T08:13:04.904Z,19.30
2018-08-10T08:15:33.069Z,19.10
2018-08-10T08:18:01.361Z,20.20
2018-08-10T08:20:29.531Z,20.40
2018-08-10T08:23:00.259Z,20.30
2018-08-10T08:25:28.512Z,20.00
2018-08-10T08:27:56.739Z,20.30
2018-08-10T08:30:24.986Z,20.50
2018-08-10T08:32:53.206Z,20.30
2018-08-10T08:35:21.439Z,20.30
2018-08-10T08:37:49.690Z,20.80
2018-08-10T08:40:20.630Z,20.70
2018-08-10T08:42:49.518Z,21.00
2018-08-10T08:46:20.963Z,20.90
2018-08-10T08:48:51.544Z,20.90
2018-08-10T08:51:21.292Z,20.70
2018-08-10T08:55:04.021Z,20.70
2018-08-10T08:57:32.876Z,21.60
2018-08-10T09:00:01.232Z,22.40
2018-08-10T09:02:29.873Z,22.30
2018-08-10T09:05:06.516Z,22.30
2018-08-10T09:07:34.959Z,22.30
2018-08-10T09:10:05.641Z,22.50
2018-08-10T09:12:33.826Z,22.30
2018-08-10T09:15:05.097Z,21.80
2018-08-10T09:17:33.299Z,21.00
2018-08-10T09:20:01.442Z,20.60
2018-08-10T09:22:30.025Z,20.60
2018-08-10T09:24:58.213Z,20.50
2018-08-10T09:27:57.218Z,20.40
2018-08-10T09:30:25.404Z,19.90
2018-08-10T09:32:53.594Z,19.80
2018-08-10T09:35:21.876Z,19.90
2018-08-10T09:37:50.092Z,20.40
2018-08-10T09:40:19.937Z,21.00
2018-08-10T09:42:48.167Z,21.60
2018-08-10T09:45:17.220Z,21.40
2018-08-10T09:47:46.463Z,21.10
2018-08-10T09:50:15.372Z,21.00
2018-08-10T09:52:56.656Z,20.70
2018-08-10T09:55:28.772Z,20.70
2018-08-10T09:57:59.274Z,21.30
2018-08-10T10:00:32.789Z,21.40
2018-08-10T10:03:06.461Z,21.40
2018-08-10T10:05:34.670Z,20.80
2018-08-10T10:08:02.842Z,20.50
2018-08-10T10:10:31.017Z,20.60
2018-08-10T10:12:59.248Z,20.80
2018-08-10T10:15:27.468Z,20.90
2018-08-10T10:17:55.642Z,21.60
2018-08-10T10:20:23.866Z,22.40
2018-08-10T10:22:52.090Z,23.00
2018-08-10T10:25:20.353Z,23.50
2018-08-10T10:27:48.593Z,23.90
2018-08-10T10:30:16.800Z,23.90
2018-08-10T10:32:45.076Z,24.10
2018-08-10T10:35:13.316Z,24.20
2018-08-10T10:37:41.610Z,24.90
2018-08-10T10:40:10.699Z,25.80
2018-08-10T10:42:38.943Z,26.30
2018-08-10T10:45:09.327Z,26.60
2018-08-10T10:47:37.537Z,26.50
2018-08-10T10:50:06.581Z,25.60
2018-08-10T10:52:34.840Z,26.20
2018-08-10T10:55:03.114Z,26.50
2018-08-10T10:57:31.317Z,25.20
2018-08-10T10:59:59.531Z,23.30
2018-08-10T11:02:27.798Z,22.40
2018-08-10T11:04:56.018Z,22.30
2018-08-10T11:07:24.292Z,22.10
2018-08-10T11:09:52.532Z,22.00
2018-08-10T11:12:20.717Z,21.60
2018-08-10T11:14:49.016Z,20.80
2018-08-10T11:17:17.240Z,20.10
2018-08-10T11:19:45.587Z,19.90
2018-08-10T11:22:13.764Z,20.00
2018-08-10T11:24:42.025Z,20.60
2018-08-10T11:27:10.209Z,21.30
2018-08-10T11:29:38.417Z,20.80
2018-08-10T11:32:06.732Z,21.20
2018-08-10T11:34:34.870Z,21.10
2018-08-10T11:37:03.060Z,21.30
2018-08-10T11:39:31.257Z,21.20
2018-08-10T11:41:59.454Z,21.50
2018-08-10T11:44:27.683Z,23.00
2018-08-10T11:46:55.905Z,24.20
2018-08-10T11:49:24.160Z,25.10
2018-08-10T11:51:52.346Z,26.40
2018-08-10T11:54:20.588Z,26.20
2018-08-10T11:56:48.883Z,25.00
2018-08-10T11:59:17.168Z,24.30
2018-08-10T12:01:45.444Z,24.60
2018-08-10T12:04:13.617Z,26.40
2018-08-10T12:06:41.846Z,27.60
2018-08-10T12:09:11.456Z,28.30
2018-08-10T12:11:40.090Z,27.60
2018-08-10T12:14:08.455Z,27.80
2018-08-10T12:16:36.665Z,27.90
2018-08-10T12:19:04.949Z,27.80
2018-08-10T12:21:33.230Z,27.40
2018-08-10T12:24:01.470Z,27.30
2018-08-10T12:26:29.656Z,26.40
2018-08-10T12:28:57.969Z,25.80
2018-08-10T12:31:26.206Z,26.70
2018-08-10T12:33:54.795Z,26.50
2018-08-10T12:36:23.041Z,26.50
2018-08-10T12:38:51.224Z,25.90
2018-08-10T12:41:19.404Z,25.70
2018-08-10T12:43:47.625Z,26.00
2018-08-10T12:46:16.043Z,26.20
2018-08-10T12:48:44.281Z,26.40
2018-08-10T12:51:12.555Z,26.60
2018-08-10T12:53:40.801Z,25.70
2018-08-10T12:56:09.026Z,25.10
2018-08-10T12:58:37.233Z,25.20
2018-08-10T13:01:05.443Z,25.30
2018-08-10T13:03:33.650Z,25.40
2018-08-10T13:06:01.848Z,25.20
2018-08-10T13:08:30.085Z,25.00
2018-08-10T13:10:58.307Z,24.50
2018-08-10T13:13:26.519Z,24.50
2018-08-10T13:15:54.762Z,24.30
2018-08-10T13:18:23.045Z,24.30
2018-08-10T13:20:51.213Z,24.20
2018-08-10T13:23:19.431Z,24.10
2018-08-10T13:25:47.670Z,24.00
2018-08-10T13:28:15.896Z,24.00
2018-08-10T13:30:44.108Z,24.00
2018-08-10T13:33:12.434Z,24.00
2018-08-10T13:35:40.661Z,23.90
2018-08-10T13:38:08.934Z,23.80
2018-08-10T13:40:37.176Z,23.90
2018-08-10T13:43:05.389Z,23.50
2018-08-10T13:45:33.595Z,23.40
2018-08-10T13:48:01.799Z,23.30
2018-08-10T13:50:30.013Z,23.40
2018-08-10T13:52:58.233Z,23.00
2018-08-10T13:55:26.481Z,23.10
2018-08-10T13:57:54.769Z,23.00
2018-08-10T14:00:24.176Z,22.50
2018-08-10T14:02:53.644Z,22.60
2018-08-10T14:05:22.669Z,23.00
2018-08-10T14:07:51.233Z,23.00
2018-08-10T14:10:19.477Z,22.50
2018-08-10T14:12:47.703Z,22.60
2018-08-10T14:15:15.931Z,22.80
2018-08-10T14:17:44.140Z,22.50
2018-08-10T14:20:12.460Z,22.60
2018-08-10T14:22:40.764Z,22.90
2018-08-10T14:25:10.035Z,23.50
2018-08-10T14:27:38.260Z,23.70
2018-08-10T14:30:09.135Z,23.50
2018-08-10T14:32:37.448Z,23.40
2018-08-10T14:35:05.752Z,23.60
2018-08-10T14:37:34.937Z,24.00
2018-08-10T14:40:03.189Z,24.30
2018-08-10T14:42:31.377Z,24.10
2018-08-10T14:44:59.561Z,24.20
2018-08-10T14:47:27.816Z,24.20
2018-08-10T14:49:56.012Z,24.30
2018-08-10T14:52:24.198Z,24.10
2018-08-10T14:54:52.471Z,24.00
2018-08-10T14:57:20.738Z,23.90
2018-08-10T14:59:48.993Z,24.00
2018-08-10T15:02:17.151Z,24.20
2018-08-10T15:04:45.373Z,24.00
2018-08-10T15:07:13.638Z,24.10
2018-08-10T15:09:41.842Z,24.10
2018-08-10T15:12:10.206Z,23.80
2018-08-10T15:14:38.415Z,23.70
2018-08-10T15:17:06.779Z,23.50
2018-08-10T15:19:35.130Z,23.50
2018-08-10T15:22:03.659Z,23.60
2018-08-10T15:24:32.042Z,23.60
2018-08-10T15:27:00.544Z,23.40
2018-08-10T15:29:28.955Z,23.10
2018-08-10T15:31:57.411Z,22.90
2018-08-10T15:34:25.891Z,22.90
2018-08-10T15:36:54.294Z,22.80
2018-08-10T15:39:22.693Z,22.90
2018-08-10T15:41:51.128Z,22.90
2018-08-10T15:44:19.586Z,23.00
2018-08-10T15:46:48.061Z,23.30
2018-08-10T15:49:16.456Z,23.30
2018-08-10T15:51:44.838Z,23.20
2018-08-10T15:54:13.198Z,23.20
2018-08-10T15:56:41.854Z,23.10
2018-08-10T15:59:10.395Z,23.00
2018-08-10T16:01:38.823Z,23.20
2018-08-10T16:04:07.586Z,23.20
2018-08-10T16:06:36.119Z,23.20
2018-08-10T16:09:08.328Z,23.10
2018-08-10T16:11:36.881Z,22.90
2018-08-10T16:14:05.363Z,22.80
2018-08-10T16:16:33.674Z,22.70
2018-08-10T16:19:02.155Z,22.70
2018-08-10T16:21:30.572Z,22.80
2018-08-10T16:23:59.005Z,22.90
2018-08-10T16:26:27.432Z,22.80
2018-08-10T16:28:55.954Z,22.70
2018-08-10T16:31:24.379Z,22.50
2018-08-10T16:33:53.087Z,22.50
2018-08-10T16:36:21.516Z,22.50
2018-08-10T16:38:49.911Z,22.40
2018-08-10T16:41:18.282Z,22.40
2018-08-10T16:43:47.071Z,22.40
2018-08-10T16:46:15.557Z,22.40
2018-08-10T16:48:43.925Z,22.40
2018-08-10T16:51:12.351Z,22.50
2018-08-10T16:53:40.786Z,22.50
2018-08-10T16:56:09.238Z,22.40
2018-08-10T16:58:37.769Z,22.40
2018-08-10T17:01:06.255Z,22.40
2018-08-10T17:03:34.634Z,22.40
2018-08-10T17:06:03.143Z,22.40
2018-08-10T17:08:31.467Z,22.30
2018-08-10T17:10:59.839Z,22.30
2018-08-10T17:13:28.282Z,22.30
2018-08-10T17:15:56.745Z,22.30
2018-08-10T17:18:25.051Z,22.20
2018-08-10T17:20:53.366Z,22.20
2018-08-10T17:23:21.814Z,22.30
2018-08-10T17:25:50.184Z,22.30
2018-08-10T17:28:18.548Z,22.20
2018-08-10T17:30:46.990Z,22.20
2018-08-10T17:33:15.563Z,22.10
2018-08-10T17:35:43.862Z,22.00
2018-08-10T17:38:12.333Z,22.00
2018-08-10T17:40:40.764Z,21.90
2018-08-10T17:43:09.389Z,21.90
2018-08-10T17:45:37.813Z,21.80
2018-08-10T17:48:06.406Z,21.70
2018-08-10T17:50:34.961Z,21.70
2018-08-10T17:53:03.506Z,21.70
2018-08-10T17:55:31.954Z,21.40
2018-08-10T17:58:00.384Z,21.20
2018-08-10T18:00:28.870Z,21.30
2018-08-10T18:02:57.318Z,21.40
2018-08-10T18:05:25.654Z,21.50
2018-08-10T18:07:54.026Z,21.50
2018-08-10T18:10:22.554Z,21.40
2018-08-10T18:12:51.015Z,21.30
2018-08-10T18:15:20.150Z,20.90
2018-08-10T18:17:48.907Z,20.80
2018-08-10T18:20:20.069Z,20.80
2018-08-10T18:22:49.725Z,20.60
2018-08-10T18:25:19.418Z,20.40
2018-08-10T18:27:47.821Z,20.30
2018-08-10T18:30:19.043Z,20.30
2018-08-10T18:32:47.877Z,20.20
2018-08-10T18:35:16.407Z,20.00
2018-08-10T18:37:45.497Z,20.00
2018-08-10T18:40:14.851Z,20.00
2018-08-10T18:42:44.201Z,19.90
2018-08-10T18:45:14.554Z,20.00
2018-08-10T18:47:42.987Z,20.00
2018-08-10T18:50:13.141Z,20.20
2018-08-10T18:52:41.653Z,20.30
2018-08-10T18:55:11.881Z,20.00
2018-08-10T18:57:40.461Z,19.70
2018-08-10T19:00:11.710Z,19.60
2018-08-10T19:02:40.296Z,19.60
2018-08-10T19:05:10.517Z,19.60
2018-08-10T19:07:39.056Z,19.60
2018-08-10T19:10:08.306Z,19.40
2018-08-10T19:12:37.387Z,19.50
2018-08-10T19:15:08.424Z,19.40
2018-08-10T19:17:36.912Z,19.20
2018-08-10T19:20:05.294Z,19.20
2018-08-10T19:22:33.658Z,19.10
2018-08-10T19:25:02.361Z,19.00
2018-08-10T19:27:30.739Z,18.80
2018-08-10T19:29:59.227Z,18.70
2018-08-10T19:32:27.690Z,18.60
2018-08-10T19:34:56.125Z,18.60
2018-08-10T19:37:24.551Z,18.60
2018-08-10T19:39:53.216Z,18.50
2018-08-10T19:42:21.724Z,18.60
2018-08-10T19:44:50.267Z,18.50
2018-08-10T19:47:18.742Z,18.60
2018-08-10T19:49:47.196Z,18.90
2018-08-10T19:52:15.661Z,18.90
2018-08-10T19:54:44.227Z,18.70
2018-08-10T19:57:12.616Z,18.30
2018-08-10T19:59:41.298Z,18.10
2018-08-10T20:02:09.733Z,18.00
2018-08-10T20:04:38.177Z,17.90
2018-08-10T20:07:06.614Z,17.80
2018-08-10T20:09:35.235Z,17.90
2018-08-10T20:12:03.701Z,17.80
2018-08-10T20:14:32.175Z,18.10
2018-08-10T20:17:00.661Z,18.40
2018-08-10T20:19:29.164Z,18.50
2018-08-10T20:21:57.476Z,18.30
2018-08-10T20:24:25.808Z,17.70
2018-08-10T20:26:54.178Z,17.10
2018-08-10T20:29:22.502Z,17.10
2018-08-10T20:31:51.047Z,17.30
2018-08-10T20:34:19.618Z,17.40
2018-08-10T20:36:48.038Z,17.40
2018-08-10T20:39:16.472Z,17.30
2018-08-10T20:41:45.029Z,16.80
2018-08-10T20:44:13.540Z,17.00
2018-08-10T20:46:42.061Z,17.20
2018-08-10T20:49:10.507Z,17.00
2018-08-10T20:51:38.889Z,17.20
2018-08-10T20:54:07.375Z,17.40
2018-08-10T20:56:35.850Z,17.40
2018-08-10T20:59:04.328Z,17.70
2018-08-10T21:01:32.864Z,17.90
2018-08-10T21:04:01.358Z,17.70
2018-08-10T21:06:29.747Z,17.10
2018-08-10T21:08:58.302Z,16.80
2018-08-10T21:11:26.707Z,16.70
2018-08-10T21:13:55.243Z,17.00
2018-08-10T21:16:23.713Z,16.60
2018-08-10T21:18:52.208Z,16.50
2018-08-10T21:21:20.653Z,16.30
2018-08-10T21:23:49.079Z,16.20
2018-08-10T21:26:17.567Z,16.00
2018-08-10T21:28:46.044Z,15.80
2018-08-10T21:31:14.937Z,15.90
2018-08-10T21:33:43.369Z,15.90
2018-08-10T21:36:11.744Z,16.00
2018-08-10T21:38:40.199Z,15.90
2018-08-10T21:41:08.711Z,15.80
2018-08-10T21:43:37.112Z,15.80
2018-08-10T21:46:05.619Z,16.10
2018-08-10T21:48:34.164Z,16.00
2018-08-10T21:51:02.545Z,16.30
2018-08-10T21:53:31.045Z,15.90
2018-08-10T21:55:59.395Z,15.70
2018-08-10T21:58:27.822Z,15.70
2018-08-10T22:00:58.882Z,15.70
2018-08-10T22:03:27.322Z,15.50
2018-08-10T22:05:55.629Z,15.80
2018-08-10T22:08:24.723Z,16.20
2018-08-10T22:10:53.319Z,16.00
2018-08-10T22:13:27.005Z,16.10
2018-08-10T22:16:00.818Z,15.60
2018-08-10T22:18:34.555Z,15.50
2018-08-10T22:21:03.038Z,15.30
2018-08-10T22:23:31.381Z,15.30
2018-08-10T22:26:00.077Z,15.60
2018-08-10T22:28:28.489Z,16.00
2018-08-10T22:30:56.945Z,16.40
2018-08-10T22:33:25.385Z,16.80
2018-08-10T22:35:53.823Z,16.80
2018-08-10T22:38:22.195Z,16.40
2018-08-10T22:40:50.609Z,16.10
2018-08-10T22:43:19.059Z,16.00
2018-08-10T22:45:47.501Z,16.00
2018-08-10T22:48:15.937Z,15.70
2018-08-10T22:50:44.374Z,16.20
2018-08-10T22:53:12.837Z,16.10
2018-08-10T22:55:41.225Z,15.70
2018-08-10T22:58:09.662Z,15.50
2018-08-10T23:00:38.086Z,15.50
2018-08-10T23:03:06.609Z,15.30
2018-08-10T23:05:35.013Z,15.80
2018-08-10T23:08:03.529Z,15.20
2018-08-10T23:10:32.038Z,15.40
2018-08-10T23:13:00.454Z,15.60
2018-08-10T23:15:28.958Z,15.80
2018-08-10T23:17:57.283Z,15.20
2018-08-10T23:20:25.677Z,15.10
2018-08-10T23:22:54.066Z,14.90
2018-08-10T23:25:22.495Z,14.80
2018-08-10T23:27:50.966Z,14.90
2018-08-10T23:30:19.357Z,15.80
2018-08-10T23:32:47.728Z,15.00
2018-08-10T23:35:16.134Z,15.00
2018-08-10T23:37:44.599Z,14.50
2018-08-10T23:40:14.149Z,14.30
2018-08-10T23:42:42.909Z,14.50
2018-08-10T23:45:12.362Z,14.20
2018-08-10T23:47:41.447Z,14.00
2018-08-10T23:50:12.755Z,13.90
2018-08-10T23:52:41.388Z,13.90
2018-08-10T23:55:10.565Z,14.30
2018-08-10T23:57:40.103Z,13.90
